Time;durP1;ratioP1;P1;durP2;ratioP2;P2;SDS_P1;SDS_P2;PMS_P1;PMS_P2;Temp;Humidity;BMP_temperature;BMP_pressure;BME280_temperature;BME280_humidity;BME280_pressure;Samples;Min_cycle;Max_cycle;Signal;HPM_P1;HPM_P2
2024/03/26 00:01:05;;;;;;;;;;;8.20;73.40;;;;;;5043316;28;87525;-46
2024/03/26 00:03:30;;;;;;;;;;;8.20;73.40;;;;;;5041824;28;86951;-46
2024/03/26 00:05:56;;;;;;;;;;;8.20;73.40;;;;;;5040995;28;86907;-46
2024/03/26 00:08:23;;;;;;;;;;;8.10;73.30;;;;;;5043709;27;87509;-46
2024/03/26 00:10:48;;;;;;;;;;;8.10;73.40;;;;;;5043920;27;87559;-46
2024/03/26 00:13:14;;;;;;;;;;;8.10;73.40;;;;;;5043483;27;88040;-45
2024/03/26 00:15:39;;;;;;;;;;;8.10;73.50;;;;;;5044342;27;86852;-47
2024/03/26 00:18:05;;;;;;;;;;;8.10;73.30;;;;;;5043338;28;87115;-47
2024/03/26 00:20:30;;;;;;;;;;;8.10;73.30;;;;;;5048430;27;87277;-47
2024/03/26 00:22:56;;;;;;;;;;;8.10;73.40;;;;;;5046320;28;88437;-47
2024/03/26 00:25:21;;;;;;;;;;;8.10;73.40;;;;;;5046192;28;87569;-47
2024/03/26 00:27:47;;;;;;;;;;;8.00;73.40;;;;;;5047598;28;87751;-45
2024/03/26 00:30:13;;;;;;;;;;;8.00;73.40;;;;;;5046807;28;87001;-46
2024/03/26 00:32:38;;;;;;;;;;;8.00;73.40;;;;;;5047825;27;87588;-47
2024/03/26 00:35:04;;;;;;;;;;;8.00;73.50;;;;;;5047948;27;87944;-46
2024/03/26 00:37:29;;;;;;;;;;;8.00;73.30;;;;;;5045384;27;87069;-47
2024/03/26 00:39:55;;;;;;;;;;;8.00;73.30;;;;;;5044908;28;87162;-46
2024/03/26 00:42:20;;;;;;;;;;;7.90;73.40;;;;;;5047813;27;87562;-46
2024/03/26 00:44:46;;;;;;;;;;;8.00;73.20;;;;;;5047496;28;87072;-47
2024/03/26 00:47:11;;;;;;;;;;;8.00;73.00;;;;;;5045609;27;89614;-47
2024/03/26 00:49:37;;;;;;;;;;;7.90;73.00;;;;;;5046366;28;87340;-46
2024/03/26 00:52:03;;;;;;;;;;;7.90;73.20;;;;;;5045994;28;87368;-47
2024/03/26 00:54:28;;;;;;;;;;;7.90;73.00;;;;;;5047312;27;87469;-46
2024/03/26 00:56:54;;;;;;;;;;;7.90;72.90;;;;;;5046771;27;87030;-46
2024/03/26 00:59:19;;;;;;;;;;;7.90;72.70;;;;;;5041694;27;87801;-48
2024/03/26 01:01:45;;;;;;;;;;;7.90;72.90;;;;;;5047132;27;87410;-47
2024/03/26 01:04:10;;;;;;;;;;;7.90;73.00;;;;;;5050138;27;86515;-48
2024/03/26 01:06:36;;;;;;;;;;;7.90;72.80;;;;;;5044376;28;87538;-46
2024/03/26 01:09:01;;;;;;;;;;;7.90;73.00;;;;;;5045577;28;87707;-47
2024/03/26 01:11:27;;;;;;;;;;;7.90;72.90;;;;;;5046857;28;87943;-47
2024/03/26 01:13:53;;;;;;;;;;;7.90;72.90;;;;;;5047738;27;87624;-47
2024/03/26 01:16:18;;;;;;;;;;;7.90;72.90;;;;;;5045112;27;87237;-47
2024/03/26 01:18:44;;;;;;;;;;;7.90;72.80;;;;;;5047454;27;87945;-46
2024/03/26 01:21:09;;;;;;;;;;;7.80;72.90;;;;;;5043368;28;87790;-46
2024/03/26 01:23:35;;;;;;;;;;;7.80;72.90;;;;;;5048660;27;87706;-46
2024/03/26 01:26:00;;;;;;;;;;;7.80;72.90;;;;;;5045874;28;87030;-46
2024/03/26 01:28:26;;;;;;;;;;;7.80;72.80;;;;;;5047398;28;86199;-48
2024/03/26 01:30:51;;;;;;;;;;;7.80;72.90;;;;;;5046385;27;86892;-48
2024/03/26 01:33:17;;;;;;;;;;;7.80;72.90;;;;;;5045374;28;87566;-46
2024/03/26 01:35:52;;;;;;;;;;;7.80;72.80;;;;;;5046304;27;87944;-47
2024/03/26 01:38:17;;;;;;;;;;;7.70;72.80;;;;;;5042848;27;87994;-47
2024/03/26 01:40:43;;;;;;;;;;;7.70;73.40;;;;;;5046672;27;88111;-46
2024/03/26 01:43:08;;;;;;;;;;;7.80;72.90;;;;;;5047181;27;86834;-47
2024/03/26 01:45:34;;;;;;;;;;;7.70;72.80;;;;;;5046446;28;86941;-47
2024/03/26 01:48:00;;;;;;;;;;;7.70;72.80;;;;;;5043711;28;87488;-46
2024/03/26 01:50:25;;;;;;;;;;;7.60;72.90;;;;;;5044568;27;87519;-46
2024/03/26 01:52:51;;;;;;;;;;;7.70;73.00;;;;;;5046486;27;86774;-47
2024/03/26 01:55:17;;;;;;;;;;;7.60;72.80;;;;;;5045096;27;87158;-47
2024/03/26 01:57:43;;;;;;;;;;;7.70;72.80;;;;;;5045252;27;86920;-48
2024/03/26 02:00:08;;;;;;;;;;;7.70;72.80;;;;;;5045909;28;88496;-47
2024/03/26 02:02:34;;;;;;;;;;;7.60;72.80;;;;;;5043830;28;88415;-48
2024/03/26 02:04:59;;;;;;;;;;;7.70;72.80;;;;;;5046340;28;87049;-47
2024/03/26 02:07:25;;;;;;;;;;;7.60;72.60;;;;;;5046598;27;87515;-47
2024/03/26 02:09:51;;;;;;;;;;;7.60;72.80;;;;;;5044917;27;87091;-47
2024/03/26 02:12:17;;;;;;;;;;;7.60;72.70;;;;;;5044644;27;87645;-47
2024/03/26 02:14:42;;;;;;;;;;;7.60;72.70;;;;;;5045246;27;86850;-49
2024/03/26 02:17:08;;;;;;;;;;;7.60;72.80;;;;;;5046146;28;87191;-48
2024/03/26 02:19:34;;;;;;;;;;;7.60;72.70;;;;;;5044620;28;87275;-47
2024/03/26 02:21:59;;;;;;;;;;;7.60;72.70;;;;;;5045966;28;87103;-48
2024/03/26 02:24:25;;;;;;;;;;;7.50;72.80;;;;;;5044089;27;88692;-47
2024/03/26 02:26:51;;;;;;;;;;;7.50;72.70;;;;;;5045157;28;87464;-47
2024/03/26 02:29:16;;;;;;;;;;;7.50;72.80;;;;;;5048327;27;86941;-47
2024/03/26 02:31:42;;;;;;;;;;;7.40;72.90;;;;;;5046040;27;87660;-47
2024/03/26 02:34:07;;;;;;;;;;;7.40;72.90;;;;;;5046304;27;86911;-46
2024/03/26 02:36:33;;;;;;;;;;;7.40;72.70;;;;;;5042323;28;87018;-47
2024/03/26 02:38:59;;;;;;;;;;;7.40;72.70;;;;;;5043572;28;87391;-47
2024/03/26 02:41:24;;;;;;;;;;;7.40;72.60;;;;;;5046580;28;86310;-48
2024/03/26 02:43:50;;;;;;;;;;;7.40;72.70;;;;;;5045292;27;86932;-48
2024/03/26 02:46:16;;;;;;;;;;;7.30;72.70;;;;;;5045521;27;87296;-47
2024/03/26 02:48:41;;;;;;;;;;;7.30;72.80;;;;;;5044388;28;87751;-47
2024/03/26 02:51:07;;;;;;;;;;;7.30;72.90;;;;;;5048533;27;87690;-48
2024/03/26 02:53:32;;;;;;;;;;;7.30;72.80;;;;;;5042095;27;87257;-46
2024/03/26 02:55:58;;;;;;;;;;;7.30;72.80;;;;;;5045624;27;87945;-47
2024/03/26 02:58:23;;;;;;;;;;;7.30;73.30;;;;;;5044972;28;87661;-48
2024/03/26 03:00:49;;;;;;;;;;;7.30;72.70;;;;;;5040550;28;87911;-47
2024/03/26 03:03:14;;;;;;;;;;;7.30;72.60;;;;;;5044051;28;87737;-46
2024/03/26 03:05:40;;;;;;;;;;;7.30;72.50;;;;;;5045065;27;86705;-46
2024/03/26 03:08:06;;;;;;;;;;;7.30;72.60;;;;;;5042969;28;87065;-47
2024/03/26 03:10:32;;;;;;;;;;;7.30;72.60;;;;;;5046391;28;87710;-47
2024/03/26 03:12:57;;;;;;;;;;;7.30;72.50;;;;;;5042033;27;89283;-47
2024/03/26 03:15:23;;;;;;;;;;;7.30;72.50;;;;;;5044914;27;89016;-47
2024/03/26 03:17:49;;;;;;;;;;;7.30;72.50;;;;;;5041577;27;87455;-49
2024/03/26 03:20:14;;;;;;;;;;;7.30;72.50;;;;;;5043911;27;86860;-48
2024/03/26 03:22:42;;;;;;;;;;;7.20;72.50;;;;;;5042848;27;87696;-47
2024/03/26 03:25:08;;;;;;;;;;;7.20;72.60;;;;;;5040222;28;87738;-48
2024/03/26 03:27:33;;;;;;;;;;;7.10;72.70;;;;;;5040619;27;87186;-48
2024/03/26 03:29:59;;;;;;;;;;;7.10;72.80;;;;;;5045695;27;86846;-47
2024/03/26 03:32:25;;;;;;;;;;;7.10;72.70;;;;;;5045669;27;88475;-47
2024/03/26 03:34:51;;;;;;;;;;;7.10;72.90;;;;;;5044714;27;87067;-48
2024/03/26 03:37:17;;;;;;;;;;;7.10;72.70;;;;;;5042836;27;88510;-47
2024/03/26 03:39:42;;;;;;;;;;;7.10;72.60;;;;;;5042540;28;88353;-48
2024/03/26 03:42:08;;;;;;;;;;;7.10;72.70;;;;;;5041537;28;87070;-50
2024/03/26 03:44:35;;;;;;;;;;;7.00;72.60;;;;;;5043823;28;87402;-51
2024/03/26 03:47:01;;;;;;;;;;;7.00;72.50;;;;;;5044634;27;87162;-47
2024/03/26 03:49:27;;;;;;;;;;;7.00;72.40;;;;;;5041579;27;86854;-47
2024/03/26 03:51:52;;;;;;;;;;;7.10;72.50;;;;;;5043993;28;87682;-48
2024/03/26 03:54:18;;;;;;;;;;;7.10;72.50;;;;;;5046808;28;86703;-49
2024/03/26 03:56:43;;;;;;;;;;;7.00;72.50;;;;;;5042207;27;88684;-47
2024/03/26 03:59:09;;;;;;;;;;;7.00;72.60;;;;;;5045084;27;87836;-46
2024/03/26 04:01:34;;;;;;;;;;;7.00;72.50;;;;;;5044184;28;88295;-48
2024/03/26 04:04:00;;;;;;;;;;;7.00;72.50;;;;;;5043806;28;87468;-47
2024/03/26 04:06:25;;;;;;;;;;;6.90;72.60;;;;;;5040716;28;86995;-47
2024/03/26 04:08:51;;;;;;;;;;;6.90;72.50;;;;;;5041754;28;87028;-46
2024/03/26 04:11:17;;;;;;;;;;;7.00;72.50;;;;;;5043181;27;88287;-46
2024/03/26 04:13:43;;;;;;;;;;;6.90;72.50;;;;;;5041607;28;88321;-46
2024/03/26 04:16:08;;;;;;;;;;;6.90;72.60;;;;;;5047392;28;86955;-47
2024/03/26 04:18:34;;;;;;;;;;;6.90;72.60;;;;;;5042306;27;86459;-47
2024/03/26 04:20:59;;;;;;;;;;;6.90;72.50;;;;;;5043283;28;87163;-47
2024/03/26 04:23:25;;;;;;;;;;;6.80;72.60;;;;;;5044174;28;88414;-47
2024/03/26 04:25:57;;;;;;;;;;;6.80;72.60;;;;;;5042217;28;87983;-47
2024/03/26 04:28:23;;;;;;;;;;;6.80;72.70;;;;;;5044340;28;87538;-47
2024/03/26 04:30:48;;;;;;;;;;;6.80;72.60;;;;;;5041706;27;87531;-48
2024/03/26 04:33:14;;;;;;;;;;;6.80;72.60;;;;;;5043148;28;87945;-47
2024/03/26 04:35:39;;;;;;;;;;;6.80;72.60;;;;;;5041616;28;87051;-47
2024/03/26 04:38:05;;;;;;;;;;;6.80;72.60;;;;;;5045618;28;87648;-46
2024/03/26 04:40:30;;;;;;;;;;;6.80;72.60;;;;;;5043052;28;87139;-46
2024/03/26 04:42:56;;;;;;;;;;;6.80;72.50;;;;;;5042382;28;86884;-47
2024/03/26 04:45:22;;;;;;;;;;;6.80;72.50;;;;;;5044126;28;87010;-48
2024/03/26 04:47:47;;;;;;;;;;;6.80;73.10;;;;;;5042500;27;88547;-46
2024/03/26 04:50:13;;;;;;;;;;;6.70;72.40;;;;;;5043188;28;88411;-47
2024/03/26 04:52:38;;;;;;;;;;;6.80;72.40;;;;;;5042011;27;88612;-47
2024/03/26 04:55:05;;;;;;;;;;;6.70;72.50;;;;;;5042880;27;87589;-47
2024/03/26 04:57:32;;;;;;;;;;;6.70;72.50;;;;;;5042490;27;88334;-47
2024/03/26 04:59:57;;;;;;;;;;;6.70;72.50;;;;;;5046702;27;86860;-47
2024/03/26 05:02:23;;;;;;;;;;;6.70;72.40;;;;;;5043898;28;87481;-47
2024/03/26 05:04:48;;;;;;;;;;;6.70;72.50;;;;;;5040126;27;87007;-48
2024/03/26 05:07:14;;;;;;;;;;;6.70;72.40;;;;;;5046275;28;86929;-48
2024/03/26 05:09:39;;;;;;;;;;;6.70;73.00;;;;;;5043738;27;89091;-47
2024/03/26 05:12:05;;;;;;;;;;;6.70;72.40;;;;;;5045614;28;87804;-46
2024/03/26 05:14:30;;;;;;;;;;;6.70;72.40;;;;;;5046262;27;87942;-47
2024/03/26 05:16:56;;;;;;;;;;;6.70;72.40;;;;;;5045757;28;87506;-46
2024/03/26 05:19:22;;;;;;;;;;;6.70;72.30;;;;;;5050220;28;86957;-46
2024/03/26 05:21:47;;;;;;;;;;;6.70;72.40;;;;;;5043564;27;88514;-47
2024/03/26 05:24:13;;;;;;;;;;;6.70;72.40;;;;;;5046753;27;86869;-48
2024/03/26 05:26:38;;;;;;;;;;;6.60;72.30;;;;;;5045340;28;86940;-47
2024/03/26 05:29:04;;;;;;;;;;;6.60;72.30;;;;;;5045416;28;87536;-47
2024/03/26 05:31:29;;;;;;;;;;;6.60;72.30;;;;;;5046723;28;86322;-47
2024/03/26 05:33:55;;;;;;;;;;;6.60;72.30;;;;;;5043200;27;87683;-47
2024/03/26 05:36:20;;;;;;;;;;;6.60;72.40;;;;;;5045321;27;88425;-48
2024/03/26 05:38:46;;;;;;;;;;;6.60;72.30;;;;;;5043127;28;88642;-46
2024/03/26 05:41:11;;;;;;;;;;;6.60;72.30;;;;;;5046230;28;87927;-46
2024/03/26 05:43:37;;;;;;;;;;;6.60;72.40;;;;;;5047143;28;87150;-46
2024/03/26 05:46:03;;;;;;;;;;;6.60;72.30;;;;;;5046440;27;87181;-47
2024/03/26 05:48:29;;;;;;;;;;;6.60;72.30;;;;;;5045783;27;88467;-47
2024/03/26 05:50:54;;;;;;;;;;;6.60;72.30;;;;;;5044222;28;87081;-47
2024/03/26 05:53:20;;;;;;;;;;;6.60;72.30;;;;;;5045872;28;87083;-47
2024/03/26 05:55:46;;;;;;;;;;;6.60;72.30;;;;;;5038697;27;86871;-47
2024/03/26 05:58:11;;;;;;;;;;;6.60;72.30;;;;;;5045989;27;87246;-46
2024/03/26 06:00:37;;;;;;;;;;;6.50;72.30;;;;;;5046735;27;86884;-47
2024/03/26 06:03:03;;;;;;;;;;;6.50;72.30;;;;;;5047928;27;88498;-48
2024/03/26 06:05:28;;;;;;;;;;;6.50;72.30;;;;;;5044746;27;87590;-46
2024/03/26 06:07:54;;;;;;;;;;;6.50;72.40;;;;;;5040297;27;88482;-47
2024/03/26 06:10:20;;;;;;;;;;;6.50;72.40;;;;;;5044848;27;87078;-46
2024/03/26 06:12:46;;;;;;;;;;;6.50;72.50;;;;;;5043326;27;87946;-46
2024/03/26 06:15:12;;;;;;;;;;;6.50;72.50;;;;;;5045940;27;87539;-48
2024/03/26 06:17:38;;;;;;;;;;;6.50;72.50;;;;;;5041872;27;87092;-47
2024/03/26 06:20:04;;;;;;;;;;;6.50;72.50;;;;;;5043893;27;87041;-47
2024/03/26 06:22:30;;;;;;;;;;;6.50;72.70;;;;;;5045116;28;87663;-47
2024/03/26 06:24:55;;;;;;;;;;;6.50;72.70;;;;;;5049225;28;87475;-47
2024/03/26 06:27:21;;;;;;;;;;;6.50;72.70;;;;;;5043540;28;88523;-48
2024/03/26 06:29:46;;;;;;;;;;;6.50;72.70;;;;;;5043578;27;87653;-46
2024/03/26 06:32:12;;;;;;;;;;;6.50;72.70;;;;;;5041141;28;87178;-47
2024/03/26 06:34:38;;;;;;;;;;;6.40;72.70;;;;;;5045029;28;87039;-48
2024/03/26 06:37:04;;;;;;;;;;;6.40;72.60;;;;;;5044816;27;86898;-48
2024/03/26 06:39:29;;;;;;;;;;;6.40;72.80;;;;;;5044542;27;88587;-48
2024/03/26 06:41:55;;;;;;;;;;;6.40;72.80;;;;;;5040618;27;87729;-48
2024/03/26 06:44:20;;;;;;;;;;;6.40;72.80;;;;;;5046523;28;86378;-47
2024/03/26 06:46:46;;;;;;;;;;;6.40;72.90;;;;;;5047997;27;87777;-47
2024/03/26 06:49:11;;;;;;;;;;;6.40;72.90;;;;;;5043984;28;87027;-46
2024/03/26 06:51:37;;;;;;;;;;;6.40;72.90;;;;;;5044008;27;87915;-48
2024/03/26 06:54:03;;;;;;;;;;;6.40;72.90;;;;;;5044433;27;86863;-48
2024/03/26 06:56:28;;;;;;;;;;;6.40;73.00;;;;;;5042889;27;86985;-48
2024/03/26 06:58:54;;;;;;;;;;;6.40;72.90;;;;;;5043754;27;87892;-47
2024/03/26 07:01:20;;;;;;;;;;;6.40;73.00;;;;;;5045379;27;87426;-47
2024/03/26 07:03:47;;;;;;;;;;;6.30;73.00;;;;;;5044653;27;87596;-47
2024/03/26 07:06:12;;;;;;;;;;;6.30;73.00;;;;;;5043602;28;87091;-47
2024/03/26 07:08:38;;;;;;;;;;;6.30;73.00;;;;;;5048650;28;86795;-47
2024/03/26 07:11:03;;;;;;;;;;;6.30;73.10;;;;;;5041299;28;87039;-48
2024/03/26 07:13:29;;;;;;;;;;;6.30;73.20;;;;;;5040870;28;88547;-47
2024/03/26 07:15:55;;;;;;;;;;;6.30;73.20;;;;;;5043241;27;89451;-48
2024/03/26 07:18:20;;;;;;;;;;;6.30;73.10;;;;;;5044756;27;87842;-48
2024/03/26 07:20:46;;;;;;;;;;;6.40;73.20;;;;;;5044826;27;87643;-46
2024/03/26 07:23:12;;;;;;;;;;;6.40;73.10;;;;;;5047033;27;87433;-46
2024/03/26 07:25:38;;;;;;;;;;;6.40;73.10;;;;;;5042456;27;86932;-49
2024/03/26 07:28:03;;;;;;;;;;;6.30;73.10;;;;;;5046343;27;87599;-48
2024/03/26 07:30:29;;;;;;;;;;;6.30;73.20;;;;;;5045417;27;86969;-48
2024/03/26 07:32:55;;;;;;;;;;;6.40;73.20;;;;;;5044553;27;87847;-48
2024/03/26 07:35:22;;;;;;;;;;;6.30;73.20;;;;;;5044227;28;87024;-48
2024/03/26 07:37:48;;;;;;;;;;;6.30;73.20;;;;;;5044531;27;87124;-48
2024/03/26 07:40:13;;;;;;;;;;;6.30;73.90;;;;;;5043467;27;88643;-49
2024/03/26 07:42:39;;;;;;;;;;;6.30;73.30;;;;;;5041367;27;87836;-48
2024/03/26 07:45:04;;;;;;;;;;;6.30;73.40;;;;;;5045188;28;86992;-47
2024/03/26 07:47:30;;;;;;;;;;;6.30;73.50;;;;;;5041021;27;87293;-47
2024/03/26 07:49:55;;;;;;;;;;;6.30;73.40;;;;;;5046198;28;87515;-48
2024/03/26 07:52:21;;;;;;;;;;;6.30;73.40;;;;;;5043191;28;87538;-47
2024/03/26 07:54:46;;;;;;;;;;;6.30;73.50;;;;;;5043957;27;87486;-48
2024/03/26 07:57:12;;;;;;;;;;;6.30;73.50;;;;;;5044327;28;86856;-47
2024/03/26 07:59:38;;;;;;;;;;;6.30;73.40;;;;;;5044640;28;87469;-46
2024/03/26 08:02:04;;;;;;;;;;;6.40;73.40;;;;;;5039812;27;87644;-48
2024/03/26 08:04:30;;;;;;;;;;;6.30;73.40;;;;;;5040025;28;88758;-47
2024/03/26 08:06:55;;;;;;;;;;;6.30;74.00;;;;;;5040504;27;87471;-46
2024/03/26 08:09:21;;;;;;;;;;;6.20;73.80;;;;;;5043061;28;87845;-47
2024/03/26 08:11:46;;;;;;;;;;;6.30;73.80;;;;;;5046180;27;87657;-46
2024/03/26 08:14:12;;;;;;;;;;;6.30;73.70;;;;;;5041245;28;86995;-45
2024/03/26 08:16:37;;;;;;;;;;;6.30;73.70;;;;;;5039302;27;87038;-46
2024/03/26 08:19:03;;;;;;;;;;;6.30;73.70;;;;;;5042040;28;87668;-47
2024/03/26 08:21:29;;;;;;;;;;;6.30;73.70;;;;;;5042180;28;86416;-47
2024/03/26 08:23:54;;;;;;;;;;;6.30;73.90;;;;;;5039810;28;86926;-46
2024/03/26 08:26:20;;;;;;;;;;;6.30;73.70;;;;;;5042574;28;87625;-46
2024/03/26 08:28:45;;;;;;;;;;;6.30;73.70;;;;;;5043683;27;88448;-47
2024/03/26 08:31:11;;;;;;;;;;;6.30;73.80;;;;;;5041443;28;87354;-46
2024/03/26 08:33:36;;;;;;;;;;;6.30;73.80;;;;;;5044926;28;87955;-46
2024/03/26 08:36:04;;;;;;;;;;;6.30;73.90;;;;;;5040394;28;86975;-46
2024/03/26 08:38:34;;;;;;;;;;;6.30;73.70;;;;;;5036476;27;88466;-48
2024/03/26 08:40:59;;;;;;;;;;;6.30;73.80;;;;;;5045255;27;87585;-48
2024/03/26 08:43:25;;;;;;;;;;;6.30;73.80;;;;;;5047203;28;86993;-48
2024/03/26 08:45:51;;;;;;;;;;;6.30;73.80;;;;;;5047592;27;87791;-46
2024/03/26 08:48:17;;;;;;;;;;;6.30;73.80;;;;;;5046626;27;87688;-46
2024/03/26 08:50:42;;;;;;;;;;;6.30;73.90;;;;;;5043567;28;87123;-48
2024/03/26 08:53:08;;;;;;;;;;;6.30;73.90;;;;;;5043088;27;88274;-46
2024/03/26 08:55:34;;;;;;;;;;;6.30;73.90;;;;;;5049837;27;87540;-47
2024/03/26 08:58:00;;;;;;;;;;;6.30;73.80;;;;;;5042653;27;87668;-47
2024/03/26 09:00:26;;;;;;;;;;;6.30;73.90;;;;;;5043192;28;86886;-47
2024/03/26 09:02:52;;;;;;;;;;;6.30;74.00;;;;;;5046404;27;88105;-47
2024/03/26 09:05:18;;;;;;;;;;;6.30;74.00;;;;;;5041750;27;87535;-48
2024/03/26 09:07:43;;;;;;;;;;;6.30;73.90;;;;;;5042306;28;87419;-46
2024/03/26 09:10:09;;;;;;;;;;;6.30;74.00;;;;;;5044356;28;86575;-46
2024/03/26 09:12:37;;;;;;;;;;;6.40;73.90;;;;;;5042772;27;87488;-47
2024/03/26 09:15:03;;;;;;;;;;;6.40;74.10;;;;;;5047096;28;87060;-47
2024/03/26 09:17:29;;;;;;;;;;;6.40;74.00;;;;;;5046694;27;87951;-46
2024/03/26 09:19:55;;;;;;;;;;;6.40;74.10;;;;;;5045570;27;87302;-48
2024/03/26 09:22:20;;;;;;;;;;;6.40;74.00;;;;;;5045308;27;86945;-47
2024/03/26 09:24:46;;;;;;;;;;;6.40;74.70;;;;;;5042685;27;87453;-47
2024/03/26 09:27:11;;;;;;;;;;;6.40;74.10;;;;;;5044819;27;86912;-46
2024/03/26 09:29:37;;;;;;;;;;;6.40;74.10;;;;;;5044802;28;86958;-46
2024/03/26 09:32:03;;;;;;;;;;;6.40;74.00;;;;;;5045782;27;87356;-47
2024/03/26 09:34:30;;;;;;;;;;;6.40;74.00;;;;;;5045679;27;86264;-46
2024/03/26 09:36:56;;;;;;;;;;;6.40;74.10;;;;;;5048348;27;87001;-45
2024/03/26 09:39:22;;;;;;;;;;;6.40;74.30;;;;;;5042748;28;87621;-47
2024/03/26 09:41:48;;;;;;;;;;;6.40;74.00;;;;;;5044077;27;88079;-47
2024/03/26 09:44:14;;;;;;;;;;;6.40;74.10;;;;;;5046056;27;88692;-47
2024/03/26 09:46:40;;;;;;;;;;;6.40;74.10;;;;;;5045323;28;86995;-47
2024/03/26 09:49:07;;;;;;;;;;;6.50;74.20;;;;;;5037569;27;87899;-47
2024/03/26 09:51:33;;;;;;;;;;;6.50;74.10;;;;;;5045442;27;88983;-47
2024/03/26 09:53:59;;;;;;;;;;;6.50;74.10;;;;;;5044407;27;86972;-46
2024/03/26 09:56:25;;;;;;;;;;;6.50;74.20;;;;;;5044464;28;87386;-48
2024/03/26 09:58:50;;;;;;;;;;;6.50;74.20;;;;;;5048806;28;86834;-48
2024/03/26 10:01:17;;;;;;;;;;;6.50;74.30;;;;;;5043598;28;87427;-46
2024/03/26 10:03:43;;;;;;;;;;;6.50;74.40;;;;;;5043054;28;88777;-46
2024/03/26 10:06:09;;;;;;;;;;;6.40;74.40;;;;;;5044290;27;89468;-47
2024/03/26 10:08:35;;;;;;;;;;;6.50;74.60;;;;;;5045491;27;87364;-47
2024/03/26 10:11:01;;;;;;;;;;;6.50;74.70;;;;;;5046047;27;87424;-48
2024/03/26 10:13:27;;;;;;;;;;;6.40;74.60;;;;;;5041821;27;87036;-48
2024/03/26 10:15:53;;;;;;;;;;;6.40;74.70;;;;;;5043892;27;87213;-47
2024/03/26 10:18:18;;;;;;;;;;;6.50;74.90;;;;;;5042702;27;87484;-48
2024/03/26 10:20:44;;;;;;;;;;;6.50;74.90;;;;;;5047705;27;87043;-46
2024/03/26 10:23:09;;;;;;;;;;;6.50;74.90;;;;;;5042669;27;86769;-47
2024/03/26 10:25:35;;;;;;;;;;;6.50;74.90;;;;;;5046166;28;87040;-48
2024/03/26 10:28:01;;;;;;;;;;;6.50;75.00;;;;;;5045203;27;86981;-47
2024/03/26 10:30:27;;;;;;;;;;;6.50;74.80;;;;;;5040936;27;88742;-47
2024/03/26 10:32:56;;;;;;;;;;;6.50;74.80;;;;;;5041856;27;87030;-46
2024/03/26 10:35:22;;;;;;;;;;;6.50;75.00;;;;;;5045299;27;86944;-47
2024/03/26 10:37:51;;;;;;;;;;;6.60;74.90;;;;;;5044443;27;87528;-47
2024/03/26 10:40:21;;;;;;;;;;;6.50;75.00;;;;;;5043266;28;87766;-46
2024/03/26 10:42:52;;;;;;;;;;;6.60;75.20;;;;;;5044963;28;87289;-46
2024/03/26 10:45:18;;;;;;;;;;;6.60;75.10;;;;;;5044153;27;87151;-46
2024/03/26 10:47:45;;;;;;;;;;;6.60;75.10;;;;;;5044747;27;88379;-45
2024/03/26 10:50:11;;;;;;;;;;;6.60;75.10;;;;;;5044440;28;87314;-46
2024/03/26 10:52:37;;;;;;;;;;;6.60;75.10;;;;;;5044455;28;87482;-46
2024/03/26 10:55:02;;;;;;;;;;;6.60;75.10;;;;;;5044192;28;87957;-46
2024/03/26 10:57:28;;;;;;;;;;;6.70;75.00;;;;;;5044954;27;88623;-46
2024/03/26 10:59:54;;;;;;;;;;;6.70;75.10;;;;;;5045427;27;87027;-47
2024/03/26 11:02:20;;;;;;;;;;;6.70;75.10;;;;;;5042466;27;87363;-48
2024/03/26 11:04:46;;;;;;;;;;;6.70;75.10;;;;;;5042230;27;87501;-46
2024/03/26 11:07:13;;;;;;;;;;;6.70;75.00;;;;;;5044776;28;87825;-46
2024/03/26 11:09:39;;;;;;;;;;;6.70;75.00;;;;;;5045102;27;87657;-47
2024/03/26 11:12:09;;;;;;;;;;;6.70;75.00;;;;;;5045096;27;86457;-47
2024/03/26 11:14:41;;;;;;;;;;;6.70;75.00;;;;;;5044485;28;86885;-47
2024/03/26 11:17:12;;;;;;;;;;;6.80;75.00;;;;;;5042012;27;88808;-47
2024/03/26 11:19:39;;;;;;;;;;;6.70;75.00;;;;;;5043404;28;87950;-47
2024/03/26 11:22:05;;;;;;;;;;;6.80;75.10;;;;;;5044946;27;87933;-48
2024/03/26 11:24:32;;;;;;;;;;;6.80;75.10;;;;;;5044714;28;87494;-47
2024/03/26 11:27:01;;;;;;;;;;;6.80;75.10;;;;;;5046216;27;87293;-46
2024/03/26 11:29:29;;;;;;;;;;;6.80;75.00;;;;;;5043987;27;87052;-46
2024/03/26 11:31:56;;;;;;;;;;;6.90;75.00;;;;;;5042662;28;87041;-47
2024/03/26 11:34:23;;;;;;;;;;;6.90;75.00;;;;;;5044249;27;87028;-47
2024/03/26 11:36:51;;;;;;;;;;;6.90;75.00;;;;;;5044431;27;86693;-45
2024/03/26 11:39:18;;;;;;;;;;;6.90;74.90;;;;;;5044713;28;87538;-48
2024/03/26 11:41:45;;;;;;;;;;;6.90;75.10;;;;;;5043772;28;86977;-47
2024/03/26 11:44:11;;;;;;;;;;;6.90;75.10;;;;;;5042981;27;88407;-46
2024/03/26 11:46:36;;;;;;;;;;;6.90;75.00;;;;;;5045893;28;87373;-46
2024/03/26 11:49:08;;;;;;;;;;;7.00;75.00;;;;;;5043899;27;87330;-47
2024/03/26 11:51:35;;;;;;;;;;;7.00;75.00;;;;;;5042018;28;87194;-46
2024/03/26 11:54:01;;;;;;;;;;;7.00;75.00;;;;;;5044511;28;86949;-46
2024/03/26 11:56:26;;;;;;;;;;;7.00;75.10;;;;;;5044503;27;87263;-46
2024/03/26 11:58:52;;;;;;;;;;;7.00;74.90;;;;;;5043259;27;87830;-47
2024/03/26 12:01:21;;;;;;;;;;;7.00;74.90;;;;;;5044612;27;86735;-46
2024/03/26 12:03:54;;;;;;;;;;;7.00;75.10;;;;;;5042648;27;87431;-45
2024/03/26 12:06:21;;;;;;;;;;;7.10;75.00;;;;;;5042326;28;87026;-47
2024/03/26 12:08:46;;;;;;;;;;;7.10;74.90;;;;;;5045069;28;88178;-48
2024/03/26 12:11:14;;;;;;;;;;;7.10;75.00;;;;;;5041646;27;87295;-46
2024/03/26 12:13:39;;;;;;;;;;;7.10;74.90;;;;;;5044621;27;86989;-47
2024/03/26 12:16:05;;;;;;;;;;;7.10;74.90;;;;;;5043220;28;87522;-47
2024/03/26 12:18:31;;;;;;;;;;;7.10;74.90;;;;;;5044450;27;86866;-47
2024/03/26 12:20:57;;;;;;;;;;;7.10;74.90;;;;;;5041247;27;87836;-46
2024/03/26 12:23:22;;;;;;;;;;;7.10;74.90;;;;;;5042914;27;87682;-47
2024/03/26 12:25:48;;;;;;;;;;;7.10;74.90;;;;;;5044598;28;86287;-46
2024/03/26 12:28:13;;;;;;;;;;;7.10;74.90;;;;;;5044284;27;87517;-46
2024/03/26 12:30:39;;;;;;;;;;;7.10;74.90;;;;;;5046121;27;87702;-47
2024/03/26 12:33:06;;;;;;;;;;;7.10;75.00;;;;;;5041749;28;88116;-46
2024/03/26 12:35:32;;;;;;;;;;;7.10;75.00;;;;;;5042428;27;87459;-47
2024/03/26 12:37:57;;;;;;;;;;;7.10;75.00;;;;;;5042922;28;87221;-47
2024/03/26 12:40:23;;;;;;;;;;;7.10;75.00;;;;;;5040001;27;87894;-48
2024/03/26 12:42:49;;;;;;;;;;;7.10;75.00;;;;;;5040741;28;87659;-47
2024/03/26 12:45:15;;;;;;;;;;;7.20;75.10;;;;;;5044292;27;87167;-47
2024/03/26 12:47:40;;;;;;;;;;;7.20;75.10;;;;;;5044011;27;87735;-47
2024/03/26 12:50:06;;;;;;;;;;;7.20;75.10;;;;;;5041198;28;86668;-48
2024/03/26 12:52:31;;;;;;;;;;;7.20;75.00;;;;;;5045745;28;87547;-50
2024/03/26 12:54:57;;;;;;;;;;;7.20;75.00;;;;;;5041366;27;89202;-47
2024/03/26 12:57:22;;;;;;;;;;;7.20;75.10;;;;;;5042617;28;88927;-46
2024/03/26 12:59:48;;;;;;;;;;;7.20;75.00;;;;;;5042411;28;87926;-47
2024/03/26 13:02:14;;;;;;;;;;;7.20;75.10;;;;;;5043451;27;88466;-46
2024/03/26 13:04:39;;;;;;;;;;;7.20;75.10;;;;;;5042452;27;87003;-47
2024/03/26 13:07:05;;;;;;;;;;;7.20;75.20;;;;;;5043503;28;86927;-48
2024/03/26 13:09:31;;;;;;;;;;;7.20;75.20;;;;;;5043111;27;88480;-47
2024/03/26 13:11:57;;;;;;;;;;;7.20;75.30;;;;;;5043421;27;86930;-47
2024/03/26 13:14:23;;;;;;;;;;;7.30;75.20;;;;;;5045473;27;86732;-46
2024/03/26 13:16:48;;;;;;;;;;;7.20;75.20;;;;;;5042764;27;87061;-47
2024/03/26 13:19:14;;;;;;;;;;;7.20;75.30;;;;;;5043596;27;86989;-47
2024/03/26 13:21:39;;;;;;;;;;;7.20;75.30;;;;;;5041567;28;88521;-47
2024/03/26 13:24:05;;;;;;;;;;;7.30;75.40;;;;;;5042955;28;86966;-47
2024/03/26 13:26:30;;;;;;;;;;;7.30;75.40;;;;;;5043321;28;88378;-47
2024/03/26 13:28:56;;;;;;;;;;;7.30;75.40;;;;;;5045548;28;87756;-47
2024/03/26 13:31:21;;;;;;;;;;;7.30;75.40;;;;;;5045144;28;87052;-48
2024/03/26 13:33:47;;;;;;;;;;;7.30;75.50;;;;;;5046458;28;86994;-47
2024/03/26 13:36:13;;;;;;;;;;;7.30;75.50;;;;;;5040435;28;88770;-46
2024/03/26 13:38:39;;;;;;;;;;;7.20;75.50;;;;;;5046714;28;86714;-46
2024/03/26 13:41:04;;;;;;;;;;;7.30;75.60;;;;;;5045750;27;87545;-47
2024/03/26 13:43:30;;;;;;;;;;;7.30;75.60;;;;;;5045118;28;86981;-47
2024/03/26 13:45:56;;;;;;;;;;;7.30;75.60;;;;;;5043371;27;88707;-50
2024/03/26 13:48:22;;;;;;;;;;;7.30;75.60;;;;;;5045947;27;87707;-47
2024/03/26 13:50:49;;;;;;;;;;;7.30;75.70;;;;;;5044165;27;87161;-48
2024/03/26 13:53:14;;;;;;;;;;;7.30;75.80;;;;;;5046311;27;88100;-48
2024/03/26 13:55:41;;;;;;;;;;;7.30;75.80;;;;;;5049105;28;86884;-48
2024/03/26 13:58:07;;;;;;;;;;;7.20;75.80;;;;;;5045431;28;87977;-47
2024/03/26 14:00:32;;;;;;;;;;;7.30;75.90;;;;;;5045163;27;88788;-47
2024/03/26 14:02:58;;;;;;;;;;;7.30;75.90;;;;;;5046493;27;86307;-47
2024/03/26 14:05:24;;;;;;;;;;;7.30;75.90;;;;;;5046610;27;86839;-47
2024/03/26 14:07:49;;;;;;;;;;;7.30;75.90;;;;;;5043256;28;87672;-48
2024/03/26 14:10:15;;;;;;;;;;;7.30;75.90;;;;;;5043868;27;87994;-48
2024/03/26 14:12:42;;;;;;;;;;;7.30;75.90;;;;;;5044845;27;87538;-47
2024/03/26 14:15:07;;;;;;;;;;;7.30;75.90;;;;;;5044859;28;87514;-47
2024/03/26 14:17:33;;;;;;;;;;;7.30;76.00;;;;;;5048675;27;87389;-47
2024/03/26 14:19:58;;;;;;;;;;;7.30;76.00;;;;;;5044706;28;87692;-47
2024/03/26 14:22:24;;;;;;;;;;;7.30;76.00;;;;;;5045773;28;87018;-47